createdAt,value
2022-09-04T00:02:01.956Z,66.03
2022-09-04T00:04:43.362Z,66.20
2022-09-04T00:07:24.558Z,66.23
2022-09-04T00:10:09.887Z,66.31
2022-09-04T00:12:51.683Z,66.47
2022-09-04T00:15:27.824Z,66.52
2022-09-04T00:18:07.226Z,66.51
2022-09-04T00:20:47.281Z,66.64
2022-09-04T00:23:23.124Z,66.65
2022-09-04T00:26:04.258Z,66.62
2022-09-04T00:28:39.948Z,66.57
2022-09-04T00:31:24.587Z,66.54
2022-09-04T00:34:10.098Z,66.48
2022-09-04T00:36:50.221Z,66.54
2022-09-04T00:39:30.132Z,66.50
2022-09-04T00:42:20.689Z,66.44
2022-09-04T00:45:05.462Z,66.19
2022-09-04T00:47:59.380Z,66.30
2022-09-04T00:51:04.667Z,66.43
2022-09-04T00:54:02.541Z,66.40
2022-09-04T00:56:59.103Z,66.10
2022-09-04T00:59:50.492Z,66.17
2022-09-04T01:02:32.718Z,66.11
2022-09-04T01:05:19.851Z,66.07
2022-09-04T01:07:56.927Z,65.99
2022-09-04T01:10:45.755Z,65.98
2022-09-04T01:13:26.836Z,65.84
2022-09-04T01:16:06.256Z,65.78
2022-09-04T01:18:49.387Z,65.59
2022-09-04T01:21:37.023Z,65.68
2022-09-04T01:24:32.981Z,65.71
2022-09-04T01:27:10.598Z,65.74
2022-09-04T01:29:50.587Z,65.86
2022-09-04T01:32:32.907Z,65.84
2022-09-04T01:35:13.888Z,65.80
2022-09-04T01:37:57.193Z,65.86
2022-09-04T01:40:39.648Z,65.84
2022-09-04T01:43:14.139Z,65.64
2022-09-04T01:46:22.708Z,65.48
2022-09-04T01:49:01.888Z,65.38
2022-09-04T01:51:41.387Z,65.56
2022-09-04T01:54:26.883Z,65.47
2022-09-04T01:57:11.884Z,65.37
2022-09-04T01:59:55.622Z,65.40
2022-09-04T02:02:34.645Z,65.39
2022-09-04T02:05:17.794Z,65.40
2022-09-04T02:07:55.727Z,65.33
2022-09-04T02:10:39.766Z,65.30
2022-09-04T02:13:22.483Z,65.25
2022-09-04T02:16:06.417Z,65.28
2022-09-04T02:18:45.614Z,65.29
2022-09-04T02:21:27.642Z,65.23
2022-09-04T02:24:14.531Z,65.11
2022-09-04T02:26:54.068Z,65.06
2022-09-04T02:29:35.150Z,64.96
2022-09-04T02:32:18.617Z,64.89
2022-09-04T02:34:57.092Z,64.89
2022-09-04T02:37:41.547Z,64.81
2022-09-04T02:40:22.147Z,64.77
2022-09-04T02:43:07.696Z,64.77
2022-09-04T02:45:47.143Z,64.71
2022-09-04T02:48:29.032Z,64.43
2022-09-04T02:51:14.879Z,64.53
2022-09-04T02:53:56.308Z,64.55
2022-09-04T02:56:39.422Z,64.56
2022-09-04T02:59:29.771Z,64.34
2022-09-04T03:02:05.026Z,64.28
2022-09-04T03:04:50.202Z,64.15
2022-09-04T03:07:31.838Z,64.04
2022-09-04T03:10:12.898Z,63.95
2022-09-04T03:12:51.833Z,63.72
2022-09-04T03:15:30.641Z,63.68
2022-09-04T03:18:08.556Z,63.66
2022-09-04T03:20:45.965Z,63.64
2022-09-04T03:23:22.849Z,63.59
2022-09-04T03:26:15.382Z,63.61
2022-09-04T03:29:02.315Z,63.55
2022-09-04T03:31:45.123Z,63.67
2022-09-04T03:34:28.286Z,63.65
2022-09-04T03:37:18.728Z,63.78
2022-09-04T03:40:02.718Z,63.71
2022-09-04T03:42:46.187Z,63.79
2022-09-04T03:45:28.916Z,63.77
2022-09-04T03:48:12.738Z,63.73
2022-09-04T03:50:58.312Z,63.74
2022-09-04T03:53:39.722Z,63.64
2022-09-04T03:56:43.531Z,63.69
2022-09-04T03:59:27.404Z,63.69
2022-09-04T04:02:08.165Z,63.59
2022-09-04T04:05:21.650Z,63.59
2022-09-04T04:08:06.164Z,63.67
2022-09-04T04:10:52.820Z,63.63
2022-09-04T04:13:45.579Z,63.62
2022-09-04T04:16:40.726Z,63.57
2022-09-04T04:19:32.101Z,63.71
2022-09-04T04:22:31.114Z,63.75
2022-09-04T04:25:16.707Z,63.77
2022-09-04T04:28:03.435Z,63.70
2022-09-04T04:30:49.782Z,63.71
2022-09-04T04:33:43.440Z,63.83
2022-09-04T04:36:29.488Z,63.69
2022-09-04T04:39:16.596Z,63.75
2022-09-04T04:42:07.667Z,63.73
2022-09-04T04:45:21.881Z,63.86
2022-09-04T04:48:24.636Z,63.75
2022-09-04T04:51:09.988Z,63.76
2022-09-04T04:53:51.078Z,63.76
2022-09-04T04:56:31.474Z,63.68
2022-09-04T04:59:19.309Z,63.72
2022-09-04T05:02:00.677Z,63.68
2022-09-04T05:04:43.372Z,63.68
2022-09-04T05:07:23.368Z,63.67
2022-09-04T05:10:03.003Z,63.67
2022-09-04T05:13:03.440Z,63.52
2022-09-04T05:16:05.019Z,63.45
2022-09-04T05:18:41.527Z,63.52
2022-09-04T05:21:24.100Z,63.43
2022-09-04T05:24:03.688Z,63.29
2022-09-04T05:26:45.171Z,63.05
2022-09-04T05:29:31.834Z,63.04
2022-09-04T05:32:23.842Z,63.04
2022-09-04T05:35:12.033Z,63.11
2022-09-04T05:37:52.427Z,63.15
2022-09-04T05:40:34.120Z,63.20
2022-09-04T05:43:17.213Z,63.20
2022-09-04T05:46:05.715Z,63.12
2022-09-04T05:48:44.332Z,63.10
2022-09-04T05:51:51.282Z,63.13
2022-09-04T05:54:44.262Z,63.08
2022-09-04T05:57:35.252Z,63.01
2022-09-04T06:00:13.915Z,63.03
2022-09-04T06:03:19.018Z,63.00
2022-09-04T06:06:22.936Z,62.88
2022-09-04T06:09:12.789Z,62.73
2022-09-04T06:12:03.148Z,62.67
2022-09-04T06:15:14.098Z,62.65
2022-09-04T06:18:01.412Z,62.65
2022-09-04T06:20:59.055Z,62.42
2022-09-04T06:23:47.823Z,62.43
2022-09-04T06:26:32.884Z,62.45
2022-09-04T06:29:43.304Z,62.47
2022-09-04T06:33:03.570Z,62.37
2022-09-04T06:35:51.585Z,62.20
2022-09-04T06:38:37.880Z,62.26
2022-09-04T06:41:15.800Z,62.15
2022-09-04T06:43:55.967Z,61.93
2022-09-04T06:46:39.060Z,61.76
2022-09-04T06:49:19.165Z,61.78
2022-09-04T06:52:03.320Z,61.82
2022-09-04T06:54:49.388Z,61.90
2022-09-04T06:57:46.835Z,61.93
2022-09-04T07:00:20.533Z,61.93
2022-09-04T07:03:22.888Z,61.91
2022-09-04T07:06:04.475Z,61.81
2022-09-04T07:08:51.884Z,61.75
2022-09-04T07:11:42.629Z,61.76
2022-09-04T07:14:35.975Z,61.88
2022-09-04T07:17:16.869Z,62.01
2022-09-04T07:20:18.655Z,61.84
2022-09-04T07:23:04.022Z,61.92
2022-09-04T07:25:46.271Z,61.89
2022-09-04T07:28:37.383Z,61.73
2022-09-04T07:31:15.059Z,61.68
2022-09-04T07:33:57.618Z,61.73
2022-09-04T07:36:39.724Z,61.42
2022-09-04T07:39:22.195Z,61.38
2022-09-04T07:42:02.921Z,61.48
2022-09-04T07:44:42.611Z,61.38
2022-09-04T07:47:19.927Z,61.55
2022-09-04T07:50:00.620Z,61.59
2022-09-04T07:53:03.641Z,61.35
2022-09-04T07:55:42.727Z,61.36
2022-09-04T07:58:44.991Z,61.36
2022-09-04T08:01:40.479Z,61.31
2022-09-04T08:04:40.476Z,61.33
2022-09-04T08:07:21.021Z,61.27
2022-09-04T08:10:11.974Z,61.05
2022-09-04T08:13:07.230Z,61.10
2022-09-04T08:15:46.268Z,60.93
2022-09-04T08:18:43.396Z,60.77
2022-09-04T08:21:23.534Z,60.39
2022-09-04T08:24:29.704Z,60.46
2022-09-04T08:27:20.295Z,60.81
2022-09-04T08:30:04.742Z,60.49
2022-09-04T08:33:00.481Z,60.31
2022-09-04T08:35:36.389Z,60.08
2022-09-04T08:38:35.837Z,60.05
2022-09-04T08:41:36.808Z,60.27
2022-09-04T08:44:40.074Z,60.21
2022-09-04T08:47:37.372Z,60.19
2022-09-04T08:50:34.471Z,60.07
2022-09-04T08:53:36.780Z,59.85
2022-09-04T08:56:20.622Z,59.93
2022-09-04T08:59:41.179Z,59.75
2022-09-04T09:03:16.251Z,59.78
2022-09-04T09:06:24.568Z,59.20
2022-09-04T09:09:32.884Z,59.03
2022-09-04T09:12:42.661Z,59.34
2022-09-04T09:15:46.877Z,58.76
2022-09-04T09:18:40.722Z,58.78
2022-09-04T09:21:26.337Z,58.59
2022-09-04T09:24:34.420Z,58.45
2022-09-04T09:27:25.210Z,58.47
2022-09-04T09:30:09.259Z,58.67
2022-09-04T09:33:16.667Z,58.41
2022-09-04T09:36:32.666Z,58.10
2022-09-04T09:39:43.370Z,57.58
2022-09-04T09:42:48.800Z,57.52
2022-09-04T09:45:42.220Z,57.05
2022-09-04T09:48:59.535Z,56.86
2022-09-04T09:51:52.390Z,56.74
2022-09-04T09:55:00.399Z,56.37
2022-09-04T09:58:09.219Z,56.21
2022-09-04T10:00:53.660Z,56.53
2022-09-04T10:03:59.478Z,56.51
2022-09-04T10:07:01.647Z,56.35
2022-09-04T10:10:03.570Z,55.71
2022-09-04T10:13:20.242Z,55.18
2022-09-04T10:16:24.814Z,55.08
2022-09-04T10:19:25.007Z,54.89
2022-09-04T10:22:38.751Z,54.29
2022-09-04T10:25:38.348Z,54.31
2022-09-04T10:28:47.582Z,54.34
2022-09-04T10:31:48.063Z,54.34
2022-09-04T10:34:39.088Z,54.09
2022-09-04T10:37:31.017Z,53.98
2022-09-04T10:40:43.926Z,53.98
2022-09-04T10:43:47.055Z,53.94
2022-09-04T10:46:26.364Z,53.71
2022-09-04T10:49:30.489Z,53.94
2022-09-04T10:52:25.614Z,53.68
2022-09-04T10:55:22.143Z,53.31
2022-09-04T10:58:26.571Z,53.49
2022-09-04T11:01:20.299Z,53.39
2022-09-04T11:04:14.024Z,53.40
2022-09-04T11:07:04.367Z,52.95
2022-09-04T11:10:04.463Z,52.94
2022-09-04T11:13:09.736Z,52.76
2022-09-04T11:16:00.368Z,53.10
2022-09-04T11:19:13.783Z,53.23
2022-09-04T11:22:34.638Z,53.11
2022-09-04T11:25:50.431Z,52.70
2022-09-04T11:28:47.473Z,52.82
2022-09-04T11:31:36.340Z,52.75
2022-09-04T11:34:43.771Z,52.83
2022-09-04T11:37:40.619Z,52.82
2022-09-04T11:40:36.847Z,52.75
2022-09-04T11:43:39.776Z,52.71
2022-09-04T11:46:34.473Z,52.72
2022-09-04T11:49:28.246Z,52.57
2022-09-04T11:52:24.148Z,52.63
2022-09-04T11:55:40.880Z,52.52
2022-09-04T11:58:36.536Z,52.25
2022-09-04T12:01:25.728Z,52.20
2022-09-04T12:04:26.175Z,52.27
2022-09-04T12:07:17.545Z,52.37
2022-09-04T12:10:09.265Z,52.35
2022-09-04T12:13:15.662Z,52.38
2022-09-04T12:16:12.890Z,52.26
2022-09-04T12:19:05.219Z,52.21
2022-09-04T12:22:06.042Z,52.12
2022-09-04T12:25:13.007Z,52.04
2022-09-04T12:28:18.775Z,51.97
2022-09-04T12:31:06.849Z,51.82
2022-09-04T12:34:11.797Z,51.76
2022-09-04T12:37:06.360Z,51.68
2022-09-04T12:40:02.615Z,51.50
2022-09-04T12:42:44.944Z,51.53
2022-09-04T12:45:26.700Z,51.43
2022-09-04T12:48:11.344Z,51.31
2022-09-04T12:50:52.996Z,51.48
2022-09-04T12:53:45.010Z,51.35
2022-09-04T12:56:28.007Z,51.14
2022-09-04T12:59:19.060Z,50.92
2022-09-04T13:02:01.950Z,50.95
2022-09-04T13:04:40.007Z,51.05
2022-09-04T13:07:29.480Z,51.00
2022-09-04T13:10:13.535Z,50.82
2022-09-04T13:12:55.327Z,50.81
2022-09-04T13:15:39.636Z,50.76
2022-09-04T13:18:31.731Z,50.80
2022-09-04T13:21:15.305Z,50.74
2022-09-04T13:24:03.700Z,50.73
2022-09-04T13:26:52.479Z,50.58
2022-09-04T13:29:36.336Z,50.38
2022-09-04T13:32:34.754Z,50.50
2022-09-04T13:35:22.431Z,50.48
2022-09-04T13:38:10.443Z,50.49
2022-09-04T13:41:05.081Z,50.52
2022-09-04T13:44:11.687Z,50.33
2022-09-04T13:46:49.853Z,50.35
2022-09-04T13:49:30.303Z,50.20
2022-09-04T13:52:10.038Z,50.20
2022-09-04T13:54:46.800Z,50.11
2022-09-04T13:57:21.885Z,50.15
2022-09-04T13:59:55.573Z,49.95
2022-09-04T14:02:31.934Z,49.96
2022-09-04T14:05:10.839Z,49.89
2022-09-04T14:07:46.286Z,49.68
2022-09-04T14:10:22.034Z,49.81
2022-09-04T14:13:05.670Z,49.72
2022-09-04T14:15:58.299Z,49.57
2022-09-04T14:18:46.871Z,49.66
2022-09-04T14:21:30.611Z,49.62
2022-09-04T14:24:11.392Z,49.51
2022-09-04T14:26:56.551Z,49.41
2022-09-04T14:29:37.736Z,49.58
2022-09-04T14:32:23.823Z,49.44
2022-09-04T14:35:08.603Z,49.26
2022-09-04T14:38:00.376Z,49.23
2022-09-04T14:40:34.426Z,49.31
2022-09-04T14:43:15.047Z,49.35
2022-09-04T14:46:06.932Z,49.23
2022-09-04T14:48:44.635Z,49.13
2022-09-04T14:51:34.293Z,49.17
2022-09-04T14:54:08.498Z,49.06
2022-09-04T14:56:47.044Z,49.11
2022-09-04T14:59:27.903Z,49.02
2022-09-04T15:02:16.845Z,49.02
2022-09-04T15:04:54.028Z,49.10
2022-09-04T15:07:49.598Z,49.03
2022-09-04T15:10:27.094Z,49.00
2022-09-04T15:13:31.416Z,48.95
2022-09-04T15:16:22.467Z,49.03
2022-09-04T15:19:13.012Z,49.20
2022-09-04T15:21:52.531Z,48.93
2022-09-04T15:24:33.988Z,48.90
2022-09-04T15:27:16.450Z,48.90
2022-09-04T15:30:03.432Z,48.96
2022-09-04T15:32:41.924Z,48.93
2022-09-04T15:35:23.265Z,48.87
2022-09-04T15:38:11.406Z,48.89
2022-09-04T15:41:15.117Z,48.89
2022-09-04T15:43:48.085Z,48.91
2022-09-04T15:46:35.822Z,48.90
2022-09-04T15:49:21.815Z,48.96
2022-09-04T15:51:56.221Z,49.00
2022-09-04T15:54:53.679Z,49.07
2022-09-04T15:57:36.221Z,49.11
2022-09-04T16:00:14.624Z,48.96
2022-09-04T16:02:54.861Z,48.98
2022-09-04T16:05:37.798Z,49.06
2022-09-04T16:08:21.684Z,49.10
2022-09-04T16:11:00.549Z,49.16
2022-09-04T16:13:46.718Z,48.91
2022-09-04T16:16:23.639Z,49.06
2022-09-04T16:19:07.698Z,48.99
2022-09-04T16:21:49.903Z,48.94
2022-09-04T16:24:29.853Z,48.98
2022-09-04T16:27:06.579Z,48.92
2022-09-04T16:29:42.360Z,48.95
2022-09-04T16:32:21.070Z,49.03
2022-09-04T16:34:57.459Z,48.92
2022-09-04T16:37:37.837Z,48.88
2022-09-04T16:40:30.883Z,48.84
2022-09-04T16:43:18.688Z,48.74
2022-09-04T16:45:58.619Z,48.72
2022-09-04T16:48:37.102Z,48.61
2022-09-04T16:51:40.530Z,48.63
2022-09-04T16:54:18.351Z,48.56
2022-09-04T16:57:12.651Z,48.69
2022-09-04T16:59:50.658Z,48.67
2022-09-04T17:02:35.901Z,48.74
2022-09-04T17:05:28.410Z,48.73
2022-09-04T17:08:10.369Z,48.77
2022-09-04T17:10:51.060Z,48.67
2022-09-04T17:13:29.839Z,48.64
2022-09-04T17:16:08.982Z,48.64
2022-09-04T17:18:50.544Z,48.65
2022-09-04T17:26:41.166Z,48.75
2022-09-04T17:29:07.541Z,48.86
2022-09-04T17:29:18.962Z,48.72
2022-09-04T17:30:56.139Z,48.62
2022-09-04T17:37:13.365Z,48.84
2022-09-04T17:40:36.080Z,48.69
2022-09-04T17:40:54.604Z,48.77
2022-09-04T17:42:37.992Z,48.92
2022-09-04T17:45:22.454Z,48.87
2022-09-04T17:48:07.500Z,48.97
2022-09-04T17:50:54.248Z,49.35
2022-09-04T17:53:34.407Z,49.41
2022-09-04T17:56:14.686Z,49.57
2022-09-04T17:58:54.526Z,49.55
2022-09-04T18:01:31.452Z,49.75
2022-09-04T18:04:27.449Z,49.67
2022-09-04T18:07:33.581Z,49.99
2022-09-04T18:10:10.484Z,49.99
2022-09-04T18:12:48.079Z,50.07
2022-09-04T18:15:35.004Z,50.25
2022-09-04T18:18:18.280Z,50.27
2022-09-04T18:20:56.065Z,50.31
2022-09-04T18:23:51.556Z,50.38
2022-09-04T18:26:40.452Z,50.43
2022-09-04T18:31:04.551Z,50.55
2022-09-04T18:37:10.010Z,50.57
2022-09-04T18:37:19.633Z,50.66
2022-09-04T18:39:08.849Z,50.77
2022-09-04T18:50:20.883Z,50.80
2022-09-04T18:50:28.033Z,50.91
2022-09-04T18:50:34.631Z,51.11
2022-09-04T18:51:19.489Z,51.19
2022-09-04T18:53:55.533Z,51.11
2022-09-04T18:56:33.172Z,51.15
2022-09-04T18:59:12.851Z,51.19
2022-09-04T19:01:49.059Z,51.41
2022-09-04T19:04:44.628Z,51.50
2022-09-04T19:07:32.041Z,51.45
2022-09-04T19:10:25.755Z,51.51
2022-09-04T19:13:05.074Z,51.51
2022-09-04T19:15:57.419Z,51.79
2022-09-04T19:18:43.955Z,51.93
2022-09-04T19:21:33.878Z,51.80
2022-09-04T19:24:31.360Z,51.92
2022-09-04T19:27:20.525Z,51.96
2022-09-04T19:30:18.393Z,52.10
2022-09-04T19:33:10.847Z,52.11
2022-09-04T19:35:50.888Z,52.26
2022-09-04T19:43:46.697Z,52.23
2022-09-04T19:45:56.434Z,52.42
2022-09-04T19:46:11.432Z,52.49
2022-09-04T19:47:37.332Z,52.51
2022-09-04T19:53:19.336Z,52.71
2022-09-04T19:53:39.087Z,52.84
2022-09-04T19:56:22.487Z,52.92
2022-09-04T19:58:57.953Z,52.91
2022-09-04T20:01:40.424Z,52.94
2022-09-04T20:04:30.382Z,53.04
2022-09-04T20:07:06.033Z,53.18
2022-09-04T20:09:38.267Z,53.11
2022-09-04T20:12:20.723Z,53.40
2022-09-04T20:14:57.400Z,53.20
2022-09-04T20:17:46.486Z,53.41
2022-09-04T20:20:23.927Z,53.24
2022-09-04T20:23:01.461Z,53.45
2022-09-04T20:25:46.641Z,53.39
2022-09-04T20:28:27.522Z,53.80
2022-09-04T20:31:35.652Z,53.72
2022-09-04T20:34:21.991Z,54.14
2022-09-04T20:37:00.346Z,53.90
2022-09-04T20:39:43.790Z,54.31
2022-09-04T20:42:25.892Z,54.58
2022-09-04T20:46:32.932Z,54.39
2022-09-04T20:52:43.213Z,54.48
2022-09-04T20:52:57.009Z,54.52
2022-09-04T20:54:07.405Z,54.87
2022-09-04T21:00:02.692Z,54.73
2022-09-04T21:03:10.709Z,55.23
2022-09-04T21:03:25.506Z,55.03
2022-09-04T21:06:22.772Z,55.25
2022-09-04T21:09:11.915Z,55.35
2022-09-04T21:11:47.396Z,55.48
2022-09-04T21:14:26.877Z,55.84
2022-09-04T21:17:35.042Z,55.69
2022-09-04T21:20:35.986Z,56.18
2022-09-04T21:24:10.283Z,56.04
2022-09-04T21:27:08.984Z,56.46
2022-09-04T21:29:53.226Z,56.48
2022-09-04T21:32:40.920Z,56.59
2022-09-04T21:35:21.416Z,56.81
2022-09-04T21:38:06.047Z,56.70
2022-09-04T21:41:01.423Z,56.91
2022-09-04T21:43:59.863Z,57.01
2022-09-04T21:47:08.393Z,57.16
2022-09-04T21:50:26.054Z,57.28
2022-09-04T21:53:34.059Z,57.37
2022-09-04T22:02:30.400Z,57.34
2022-09-04T22:02:43.613Z,57.43
2022-09-04T22:03:01.429Z,57.43
2022-09-04T22:05:47.446Z,57.74
2022-09-04T22:13:27.105Z,57.78
2022-09-04T22:13:43.868Z,57.93
2022-09-04T22:14:37.671Z,58.03
2022-09-04T22:17:24.586Z,58.07
2022-09-04T22:20:28.028Z,58.17
2022-09-04T22:23:37.891Z,58.19
2022-09-04T22:26:39.024Z,58.34
2022-09-04T22:29:39.625Z,58.45
2022-09-04T22:32:39.939Z,58.42
2022-09-04T22:35:41.964Z,58.55
2022-09-04T22:38:45.883Z,58.56
2022-09-04T22:41:45.004Z,58.77
2022-09-04T22:44:31.716Z,58.78
2022-09-04T22:47:31.499Z,58.82
2022-09-04T22:50:50.375Z,58.85
2022-09-04T22:53:53.507Z,58.90
2022-09-04T22:56:41.433Z,58.99
2022-09-04T22:59:40.044Z,59.05
2022-09-04T23:03:06.480Z,59.11
2022-09-04T23:05:42.000Z,59.21
2022-09-04T23:13:49.171Z,59.31
2022-09-04T23:13:57.316Z,59.39
2022-09-04T23:14:54.532Z,59.45
2022-09-04T23:21:36.045Z,59.44
2022-09-04T23:26:34.573Z,59.64
2022-09-04T23:26:47.005Z,59.61
2022-09-04T23:27:46.757Z,59.85
2022-09-04T23:30:25.197Z,59.97
2022-09-04T23:33:43.034Z,59.90
2022-09-04T23:36:59.112Z,60.11
2022-09-04T23:40:12.154Z,60.10
2022-09-04T23:43:42.405Z,60.11
2022-09-04T23:46:53.531Z,60.28
2022-09-04T23:49:59.331Z,60.39
2022-09-04T23:53:04.039Z,60.27
2022-09-04T23:56:06.989Z,60.38
2022-09-04T23:59:37.458Z,60.48
